Hauptseite
METAR-TAF:

METAR-TAF

Flughäfen :

Rom-Fiumicino, Italien

Flughafen Rom-Fiumicino

Breite: 41-48N, Länge: 012-14E, Höhe: 2 m

Beobachtung

Neuester Wetterbericht von vor 25 Minuten, um 17:20 UTC
Wind 2 kt aus Nord
Temperatur 11°C
Luftfeuchtigkeit 71%
Luftdruck 1014 hPa
Sichtweite 10 km oder mehr
Leicht bewölkt in der Höhe von 4000 ft

METAR: LIRF 191720Z 35002KT 9999 FEW040 11/06 Q1014 NOSIG

Zeit: 18:45 (17:45 UTC)

Prognose

Neuester Wetterbericht von vor 45 Minuten, um 17:00 UTC
Gültige Prognose vom 19 um 18 UTC bis 20 um 24 UTC
Wind 10 kt aus Nordwest
Sichtweite 10 km oder mehr
keine Wolken unter 1500 m und keine Kumulonimbus oder Gewitterwolken
Übergehend zu
vom 19 um 20 UTC bis 19 um 22 UTC
Wind 12 kt aus Nord/Nordost
Übergehend zu
vom 20 um 09 UTC bis 20 um 11 UTC
Wind 10 kt aus Süd

TAF: LIRF 191700Z 1918/2024 32010KT CAVOK BECMG 1920/1922 02012KT BECMG 2009/2011 17010KT

Wetterbeobachtungen und Prognosen von mehr als 4000 Flughäfen (METAR und TAF Bericht).

Die verfügbaren Stationen werden durch gelbe und rote Markierungen auf der Karte dargestellt.

Führen Sie die Maus auf sie, um den Namen der Station zu sehen.

Darauf klicken, um die Beobachtung von Wetterbeobachtungen und Prognosen zu sehen.

Um die Karte zu ändern : klicken Sie auf den grünen Tasten mit einem schwarzen Kreuz Zum Vergrößern, auf den grünen Button mit einem Gedankenstrich zu verkleinern, oder auf die grünen Pfeile für benachbarte Karten.


METAR-TAF: